sensor_id;sensor_type;location;lat;lon;timestamp;P1;durP1;ratioP1;P2;durP2;ratioP2
51883;SDS011;37915;53.254;6.598;2023-04-02T00:00:33;8.05;;;2.90;;
51883;SDS011;37915;53.254;6.598;2023-04-02T00:03:03;10.27;;;2.90;;
51883;SDS011;37915;53.254;6.598;2023-04-02T00:08:21;5.82;;;3.10;;
51883;SDS011;37915;53.254;6.598;2023-04-02T00:11:05;7.97;;;3.03;;
51883;SDS011;37915;53.254;6.598;2023-04-02T00:13:34;7.60;;;2.80;;
51883;SDS011;37915;53.254;6.598;2023-04-02T00:16:05;6.43;;;2.80;;
51883;SDS011;37915;53.254;6.598;2023-04-02T00:18:33;8.15;;;2.97;;
51883;SDS011;37915;53.254;6.598;2023-04-02T00:23:39;5.93;;;2.83;;
51883;SDS011;37915;53.254;6.598;2023-04-02T00:26:52;9.35;;;2.83;;
51883;SDS011;37915;53.254;6.598;2023-04-02T00:28:57;7.65;;;3.60;;
51883;SDS011;37915;53.254;6.598;2023-04-02T00:31:24;8.18;;;2.97;;
51883;SDS011;37915;53.254;6.598;2023-04-02T00:33:51;6.78;;;2.90;;
51883;SDS011;37915;53.254;6.598;2023-04-02T00:36:18;8.60;;;2.67;;
51883;SDS011;37915;53.254;6.598;2023-04-02T00:38:46;6.63;;;3.28;;
51883;SDS011;37915;53.254;6.598;2023-04-02T00:41:18;7.63;;;2.63;;
51883;SDS011;37915;53.254;6.598;2023-04-02T00:43:48;7.43;;;2.67;;
51883;SDS011;37915;53.254;6.598;2023-04-02T00:46:17;5.60;;;2.50;;
51883;SDS011;37915;53.254;6.598;2023-04-02T00:48:53;5.20;;;2.10;;
51883;SDS011;37915;53.254;6.598;2023-04-02T00:51:31;6.93;;;2.35;;
51883;SDS011;37915;53.254;6.598;2023-04-02T00:54:01;6.50;;;2.75;;
51883;SDS011;37915;53.254;6.598;2023-04-02T00:56:40;11.90;;;2.85;;
51883;SDS011;37915;53.254;6.598;2023-04-02T01:04:39;6.97;;;2.53;;
51883;SDS011;37915;53.254;6.598;2023-04-02T01:07:07;7.75;;;2.60;;
51883;SDS011;37915;53.254;6.598;2023-04-02T01:09:39;6.68;;;2.70;;
51883;SDS011;37915;53.254;6.598;2023-04-02T01:15:26;6.93;;;2.55;;
51883;SDS011;37915;53.254;6.598;2023-04-02T01:23:17;7.32;;;2.97;;
51883;SDS011;37915;53.254;6.598;2023-04-02T01:26:08;6.13;;;2.33;;
51883;SDS011;37915;53.254;6.598;2023-04-02T01:28:44;10.93;;;2.70;;
51883;SDS011;37915;53.254;6.598;2023-04-02T01:31:22;8.18;;;2.67;;
51883;SDS011;37915;53.254;6.598;2023-04-02T01:33:51;5.80;;;2.40;;
51883;SDS011;37915;53.254;6.598;2023-04-02T01:36:20;7.20;;;2.70;;
51883;SDS011;37915;53.254;6.598;2023-04-02T01:39:01;6.97;;;2.53;;
51883;SDS011;37915;53.254;6.598;2023-04-02T01:41:47;7.47;;;2.33;;
51883;SDS011;37915;53.254;6.598;2023-04-02T01:44:20;5.10;;;2.10;;
51883;SDS011;37915;53.254;6.598;2023-04-02T01:46:51;8.90;;;2.35;;
51883;SDS011;37915;53.254;6.598;2023-04-02T01:49:18;7.28;;;2.35;;
51883;SDS011;37915;53.254;6.598;2023-04-02T01:51:49;8.30;;;2.30;;
51883;SDS011;37915;53.254;6.598;2023-04-02T01:54:17;6.50;;;2.30;;
51883;SDS011;37915;53.254;6.598;2023-04-02T01:56:44;5.85;;;2.70;;
51883;SDS011;37915;53.254;6.598;2023-04-02T01:59:11;5.30;;;2.33;;
51883;SDS011;37915;53.254;6.598;2023-04-02T02:04:40;5.13;;;2.15;;
51883;SDS011;37915;53.254;6.598;2023-04-02T02:07:10;5.00;;;2.17;;
51883;SDS011;37915;53.254;6.598;2023-04-02T02:09:39;8.15;;;2.22;;
51883;SDS011;37915;53.254;6.598;2023-04-02T02:12:06;3.92;;;2.15;;
51883;SDS011;37915;53.254;6.598;2023-04-02T02:14:37;7.47;;;2.03;;
51883;SDS011;37915;53.254;6.598;2023-04-02T02:17:13;7.43;;;3.15;;
51883;SDS011;37915;53.254;6.598;2023-04-02T02:19:44;7.68;;;2.72;;
51883;SDS011;37915;53.254;6.598;2023-04-02T02:25:02;9.40;;;2.35;;
51883;SDS011;37915;53.254;6.598;2023-04-02T02:27:44;5.53;;;2.20;;
51883;SDS011;37915;53.254;6.598;2023-04-02T02:30:23;8.70;;;2.75;;
51883;SDS011;37915;53.254;6.598;2023-04-02T02:35:56;7.05;;;2.08;;
51883;SDS011;37915;53.254;6.598;2023-04-02T02:41:20;8.05;;;2.13;;
51883;SDS011;37915;53.254;6.598;2023-04-02T02:44:14;4.60;;;1.83;;
51883;SDS011;37915;53.254;6.598;2023-04-02T02:46:57;3.88;;;2.00;;
51883;SDS011;37915;53.254;6.598;2023-04-02T02:49:27;4.00;;;2.00;;
51883;SDS011;37915;53.254;6.598;2023-04-02T02:51:59;9.88;;;2.25;;
51883;SDS011;37915;53.254;6.598;2023-04-02T02:54:45;5.45;;;2.00;;
51883;SDS011;37915;53.254;6.598;2023-04-02T02:57:15;4.30;;;2.00;;
51883;SDS011;37915;53.254;6.598;2023-04-02T02:59:46;5.43;;;2.27;;
51883;SDS011;37915;53.254;6.598;2023-04-02T03:02:12;4.20;;;1.65;;
51883;SDS011;37915;53.254;6.598;2023-04-02T03:04:39;5.65;;;1.98;;
51883;SDS011;37915;53.254;6.598;2023-04-02T03:07:04;6.28;;;2.50;;
51883;SDS011;37915;53.254;6.598;2023-04-02T03:09:42;6.57;;;2.00;;
51883;SDS011;37915;53.254;6.598;2023-04-02T03:12:31;5.47;;;1.83;;
51883;SDS011;37915;53.254;6.598;2023-04-02T03:15:31;5.45;;;1.92;;
51883;SDS011;37915;53.254;6.598;2023-04-02T03:18:16;5.22;;;1.90;;
51883;SDS011;37915;53.254;6.598;2023-04-02T03:20:54;6.28;;;1.90;;
51883;SDS011;37915;53.254;6.598;2023-04-02T03:23:38;4.22;;;1.70;;
51883;SDS011;37915;53.254;6.598;2023-04-02T03:28:40;7.28;;;1.80;;
51883;SDS011;37915;53.254;6.598;2023-04-02T03:33:49;4.95;;;1.95;;
51883;SDS011;37915;53.254;6.598;2023-04-02T03:36:27;5.43;;;1.70;;
51883;SDS011;37915;53.254;6.598;2023-04-02T03:39:04;9.65;;;2.17;;
51883;SDS011;37915;53.254;6.598;2023-04-02T03:42:22;5.38;;;2.17;;
51883;SDS011;37915;53.254;6.598;2023-04-02T03:44:34;7.28;;;2.03;;
51883;SDS011;37915;53.254;6.598;2023-04-02T03:50:12;5.97;;;1.92;;
51883;SDS011;37915;53.254;6.598;2023-04-02T03:52:39;8.80;;;2.90;;
51883;SDS011;37915;53.254;6.598;2023-04-02T03:55:10;4.60;;;2.00;;
51883;SDS011;37915;53.254;6.598;2023-04-02T04:00:14;5.53;;;1.75;;
51883;SDS011;37915;53.254;6.598;2023-04-02T04:05:21;6.38;;;2.17;;
51883;SDS011;37915;53.254;6.598;2023-04-02T04:07:51;5.68;;;2.50;;
51883;SDS011;37915;53.254;6.598;2023-04-02T04:10:24;5.22;;;1.85;;
51883;SDS011;37915;53.254;6.598;2023-04-02T04:12:53;6.32;;;2.00;;
51883;SDS011;37915;53.254;6.598;2023-04-02T04:21:02;6.72;;;2.33;;
51883;SDS011;37915;53.254;6.598;2023-04-02T04:23:36;3.80;;;1.83;;
51883;SDS011;37915;53.254;6.598;2023-04-02T04:31:45;7.97;;;2.03;;
51883;SDS011;37915;53.254;6.598;2023-04-02T04:34:24;5.97;;;2.17;;
51883;SDS011;37915;53.254;6.598;2023-04-02T04:37:01;4.28;;;1.88;;
51883;SDS011;37915;53.254;6.598;2023-04-02T04:39:44;7.07;;;1.98;;
51883;SDS011;37915;53.254;6.598;2023-04-02T04:42:25;4.45;;;1.75;;
51883;SDS011;37915;53.254;6.598;2023-04-02T04:48:03;8.88;;;1.80;;
51883;SDS011;37915;53.254;6.598;2023-04-02T04:50:36;4.72;;;1.80;;
51883;SDS011;37915;53.254;6.598;2023-04-02T04:53:19;6.63;;;2.00;;
51883;SDS011;37915;53.254;6.598;2023-04-02T04:55:48;7.82;;;1.90;;
51883;SDS011;37915;53.254;6.598;2023-04-02T05:04:01;5.22;;;1.60;;
51883;SDS011;37915;53.254;6.598;2023-04-02T05:09:33;4.00;;;1.55;;
51883;SDS011;37915;53.254;6.598;2023-04-02T05:12:07;4.15;;;1.55;;
51883;SDS011;37915;53.254;6.598;2023-04-02T05:14:38;12.30;;;2.70;;
51883;SDS011;37915;53.254;6.598;2023-04-02T05:17:22;7.68;;;1.77;;
51883;SDS011;37915;53.254;6.598;2023-04-02T05:20:11;6.53;;;2.28;;
51883;SDS011;37915;53.254;6.598;2023-04-02T05:22:43;6.13;;;1.70;;
51883;SDS011;37915;53.254;6.598;2023-04-02T05:25:30;6.55;;;1.90;;
51883;SDS011;37915;53.254;6.598;2023-04-02T05:31:06;8.55;;;1.80;;
51883;SDS011;37915;53.254;6.598;2023-04-02T05:33:36;6.47;;;1.92;;
51883;SDS011;37915;53.254;6.598;2023-04-02T05:36:07;5.72;;;1.73;;
51883;SDS011;37915;53.254;6.598;2023-04-02T05:38:36;4.75;;;1.60;;
51883;SDS011;37915;53.254;6.598;2023-04-02T05:41:06;5.53;;;2.00;;
51883;SDS011;37915;53.254;6.598;2023-04-02T05:43:33;3.60;;;1.58;;
51883;SDS011;37915;53.254;6.598;2023-04-02T05:46:06;9.48;;;2.35;;
51883;SDS011;37915;53.254;6.598;2023-04-02T05:48:42;5.20;;;1.40;;
51883;SDS011;37915;53.254;6.598;2023-04-02T05:51:15;5.10;;;1.92;;
51883;SDS011;37915;53.254;6.598;2023-04-02T05:53:58;8.02;;;1.90;;
51883;SDS011;37915;53.254;6.598;2023-04-02T05:56:28;6.07;;;1.58;;
51883;SDS011;37915;53.254;6.598;2023-04-02T05:59:11;7.05;;;2.30;;
51883;SDS011;37915;53.254;6.598;2023-04-02T06:01:43;7.07;;;1.65;;
51883;SDS011;37915;53.254;6.598;2023-04-02T06:07:02;5.63;;;2.45;;
51883;SDS011;37915;53.254;6.598;2023-04-02T06:10:09;4.88;;;1.88;;
51883;SDS011;37915;53.254;6.598;2023-04-02T06:15:17;5.45;;;1.60;;
51883;SDS011;37915;53.254;6.598;2023-04-02T06:17:52;4.78;;;1.73;;
51883;SDS011;37915;53.254;6.598;2023-04-02T06:20:22;4.40;;;1.98;;
51883;SDS011;37915;53.254;6.598;2023-04-02T06:22:56;5.70;;;1.80;;
51883;SDS011;37915;53.254;6.598;2023-04-02T06:25:35;4.75;;;2.13;;
51883;SDS011;37915;53.254;6.598;2023-04-02T06:28:16;6.85;;;1.98;;
51883;SDS011;37915;53.254;6.598;2023-04-02T06:30:48;5.75;;;1.83;;
51883;SDS011;37915;53.254;6.598;2023-04-02T06:33:17;6.15;;;2.13;;
51883;SDS011;37915;53.254;6.598;2023-04-02T06:35:43;7.18;;;2.08;;
51883;SDS011;37915;53.254;6.598;2023-04-02T06:38:15;7.60;;;1.90;;
51883;SDS011;37915;53.254;6.598;2023-04-02T06:40:51;4.88;;;1.98;;
51883;SDS011;37915;53.254;6.598;2023-04-02T06:43:27;5.90;;;1.90;;
51883;SDS011;37915;53.254;6.598;2023-04-02T06:46:21;6.88;;;1.92;;
51883;SDS011;37915;53.254;6.598;2023-04-02T06:48:51;6.28;;;1.70;;
51883;SDS011;37915;53.254;6.598;2023-04-02T06:51:22;5.22;;;1.77;;
51883;SDS011;37915;53.254;6.598;2023-04-02T06:53:50;6.90;;;1.80;;
51883;SDS011;37915;53.254;6.598;2023-04-02T06:59:00;5.32;;;1.85;;
51883;SDS011;37915;53.254;6.598;2023-04-02T07:01:29;5.78;;;1.63;;
51883;SDS011;37915;53.254;6.598;2023-04-02T07:04:01;5.55;;;1.63;;
51883;SDS011;37915;53.254;6.598;2023-04-02T07:06:27;6.38;;;1.58;;
51883;SDS011;37915;53.254;6.598;2023-04-02T07:08:53;4.80;;;1.80;;
51883;SDS011;37915;53.254;6.598;2023-04-02T07:11:19;5.22;;;1.70;;
51883;SDS011;37915;53.254;6.598;2023-04-02T07:13:47;4.55;;;1.70;;
51883;SDS011;37915;53.254;6.598;2023-04-02T07:16:21;5.00;;;1.58;;
51883;SDS011;37915;53.254;6.598;2023-04-02T07:18:52;5.30;;;1.60;;
51883;SDS011;37915;53.254;6.598;2023-04-02T07:21:23;5.60;;;1.50;;
51883;SDS011;37915;53.254;6.598;2023-04-02T07:23:50;4.72;;;1.80;;
51883;SDS011;37915;53.254;6.598;2023-04-02T07:26:16;4.68;;;1.85;;
51883;SDS011;37915;53.254;6.598;2023-04-02T07:28:44;4.97;;;1.88;;
51883;SDS011;37915;53.254;6.598;2023-04-02T07:31:14;4.63;;;1.60;;
51883;SDS011;37915;53.254;6.598;2023-04-02T07:33:41;2.90;;;1.15;;
51883;SDS011;37915;53.254;6.598;2023-04-02T07:36:08;4.47;;;1.77;;
51883;SDS011;37915;53.254;6.598;2023-04-02T07:38:40;4.57;;;1.55;;
51883;SDS011;37915;53.254;6.598;2023-04-02T07:41:06;6.05;;;1.50;;
51883;SDS011;37915;53.254;6.598;2023-04-02T07:43:33;4.60;;;1.73;;
51883;SDS011;37915;53.254;6.598;2023-04-02T07:45:59;3.30;;;1.42;;
51883;SDS011;37915;53.254;6.598;2023-04-02T07:48:26;8.82;;;1.50;;
51883;SDS011;37915;53.254;6.598;2023-04-02T07:50:52;5.05;;;1.58;;
51883;SDS011;37915;53.254;6.598;2023-04-02T07:53:24;5.95;;;1.48;;
51883;SDS011;37915;53.254;6.598;2023-04-02T07:55:55;5.38;;;1.52;;
51883;SDS011;37915;53.254;6.598;2023-04-02T07:58:22;3.55;;;1.55;;
51883;SDS011;37915;53.254;6.598;2023-04-02T08:00:48;5.20;;;1.50;;
51883;SDS011;37915;53.254;6.598;2023-04-02T08:03:14;4.60;;;1.73;;
51883;SDS011;37915;53.254;6.598;2023-04-02T08:05:40;5.07;;;1.80;;
51883;SDS011;37915;53.254;6.598;2023-04-02T08:08:06;6.03;;;1.75;;
51883;SDS011;37915;53.254;6.598;2023-04-02T08:10:31;6.55;;;1.60;;
51883;SDS011;37915;53.254;6.598;2023-04-02T08:12:57;3.20;;;1.70;;
51883;SDS011;37915;53.254;6.598;2023-04-02T08:15:23;6.72;;;1.50;;
51883;SDS011;37915;53.254;6.598;2023-04-02T08:17:48;10.05;;;2.00;;
51883;SDS011;37915;53.254;6.598;2023-04-02T08:20:16;5.35;;;1.25;;
51883;SDS011;37915;53.254;6.598;2023-04-02T08:22:44;5.95;;;1.60;;
51883;SDS011;37915;53.254;6.598;2023-04-02T08:25:10;6.38;;;1.77;;
51883;SDS011;37915;53.254;6.598;2023-04-02T08:27:36;5.40;;;1.40;;
51883;SDS011;37915;53.254;6.598;2023-04-02T08:30:03;4.38;;;1.50;;
51883;SDS011;37915;53.254;6.598;2023-04-02T08:32:30;5.38;;;1.98;;
51883;SDS011;37915;53.254;6.598;2023-04-02T08:34:56;3.47;;;1.23;;
51883;SDS011;37915;53.254;6.598;2023-04-02T08:37:21;5.82;;;1.90;;
51883;SDS011;37915;53.254;6.598;2023-04-02T08:39:47;4.25;;;1.90;;
51883;SDS011;37915;53.254;6.598;2023-04-02T08:45:07;5.05;;;1.48;;
51883;SDS011;37915;53.254;6.598;2023-04-02T08:47:45;4.18;;;1.55;;
51883;SDS011;37915;53.254;6.598;2023-04-02T08:50:21;3.53;;;1.40;;
51883;SDS011;37915;53.254;6.598;2023-04-02T08:52:48;5.22;;;1.65;;
51883;SDS011;37915;53.254;6.598;2023-04-02T08:55:26;3.90;;;1.90;;
51883;SDS011;37915;53.254;6.598;2023-04-02T09:04:14;4.78;;;1.30;;
51883;SDS011;37915;53.254;6.598;2023-04-02T09:06:42;4.55;;;1.33;;
51883;SDS011;37915;53.254;6.598;2023-04-02T09:09:10;6.85;;;1.33;;
51883;SDS011;37915;53.254;6.598;2023-04-02T09:15:04;4.45;;;1.35;;
51883;SDS011;37915;53.254;6.598;2023-04-02T09:17:18;4.38;;;1.70;;
51883;SDS011;37915;53.254;6.598;2023-04-02T09:22:23;4.25;;;1.42;;
51883;SDS011;37915;53.254;6.598;2023-04-02T09:24:52;2.95;;;1.40;;
51883;SDS011;37915;53.254;6.598;2023-04-02T09:27:21;4.47;;;1.55;;
51883;SDS011;37915;53.254;6.598;2023-04-02T09:32:43;3.45;;;1.52;;
51883;SDS011;37915;53.254;6.598;2023-04-02T09:35:16;6.50;;;1.73;;
51883;SDS011;37915;53.254;6.598;2023-04-02T09:37:47;6.13;;;1.83;;
51883;SDS011;37915;53.254;6.598;2023-04-02T09:40:44;4.47;;;1.40;;
51883;SDS011;37915;53.254;6.598;2023-04-02T09:43:14;2.83;;;1.30;;
51883;SDS011;37915;53.254;6.598;2023-04-02T09:45:42;4.78;;;1.20;;
51883;SDS011;37915;53.254;6.598;2023-04-02T09:48:22;3.40;;;1.25;;
51883;SDS011;37915;53.254;6.598;2023-04-02T09:51:30;4.43;;;1.25;;
51883;SDS011;37915;53.254;6.598;2023-04-02T09:53:50;2.67;;;1.17;;
51883;SDS011;37915;53.254;6.598;2023-04-02T09:56:36;4.95;;;1.30;;
51883;SDS011;37915;53.254;6.598;2023-04-02T10:01:32;5.60;;;2.15;;
51883;SDS011;37915;53.254;6.598;2023-04-02T10:04:03;4.18;;;1.40;;
51883;SDS011;37915;53.254;6.598;2023-04-02T10:06:31;5.32;;;1.30;;
51883;SDS011;37915;53.254;6.598;2023-04-02T10:09:17;3.50;;;1.00;;
51883;SDS011;37915;53.254;6.598;2023-04-02T10:11:54;4.95;;;1.33;;
51883;SDS011;37915;53.254;6.598;2023-04-02T10:14:26;3.08;;;1.00;;
51883;SDS011;37915;53.254;6.598;2023-04-02T10:16:57;6.35;;;1.50;;
51883;SDS011;37915;53.254;6.598;2023-04-02T10:20:02;2.78;;;1.08;;
51883;SDS011;37915;53.254;6.598;2023-04-02T10:22:35;3.70;;;1.50;;
51883;SDS011;37915;53.254;6.598;2023-04-02T10:25:04;2.72;;;1.15;;
51883;SDS011;37915;53.254;6.598;2023-04-02T10:27:53;2.55;;;0.90;;
51883;SDS011;37915;53.254;6.598;2023-04-02T10:30:30;3.05;;;1.10;;
51883;SDS011;37915;53.254;6.598;2023-04-02T10:33:04;3.50;;;1.20;;
51883;SDS011;37915;53.254;6.598;2023-04-02T10:35:55;4.53;;;1.20;;
51883;SDS011;37915;53.254;6.598;2023-04-02T10:38:31;3.92;;;1.20;;
51883;SDS011;37915;53.254;6.598;2023-04-02T10:46:47;4.30;;;1.00;;
51883;SDS011;37915;53.254;6.598;2023-04-02T10:54:53;3.00;;;1.10;;
51883;SDS011;37915;53.254;6.598;2023-04-02T10:59:54;2.60;;;1.10;;
51883;SDS011;37915;53.254;6.598;2023-04-02T11:02:37;3.08;;;1.20;;
51883;SDS011;37915;53.254;6.598;2023-04-02T11:08:08;4.95;;;1.10;;
51883;SDS011;37915;53.254;6.598;2023-04-02T11:13:08;3.42;;;1.00;;
51883;SDS011;37915;53.254;6.598;2023-04-02T11:15:42;4.38;;;0.98;;
51883;SDS011;37915;53.254;6.598;2023-04-02T11:18:19;2.28;;;1.10;;
51883;SDS011;37915;53.254;6.598;2023-04-02T11:20:55;2.60;;;0.90;;
51883;SDS011;37915;53.254;6.598;2023-04-02T11:23:25;2.80;;;0.93;;
51883;SDS011;37915;53.254;6.598;2023-04-02T11:26:10;2.72;;;1.10;;
51883;SDS011;37915;53.254;6.598;2023-04-02T11:42:35;1.88;;;0.88;;
51883;SDS011;37915;53.254;6.598;2023-04-02T11:50:31;2.25;;;1.08;;
51883;SDS011;37915;53.254;6.598;2023-04-02T11:53:19;3.33;;;1.00;;
51883;SDS011;37915;53.254;6.598;2023-04-02T12:01:28;3.88;;;1.00;;
51883;SDS011;37915;53.254;6.598;2023-04-02T12:07:24;2.00;;;0.85;;
51883;SDS011;37915;53.254;6.598;2023-04-02T12:10:31;1.98;;;0.90;;
51883;SDS011;37915;53.254;6.598;2023-04-02T12:12:58;2.90;;;0.90;;
51883;SDS011;37915;53.254;6.598;2023-04-02T12:15:41;2.97;;;1.00;;
51883;SDS011;37915;53.254;6.598;2023-04-02T12:18:16;2.75;;;1.23;;
51883;SDS011;37915;53.254;6.598;2023-04-02T12:20:49;4.03;;;1.38;;
51883;SDS011;37915;53.254;6.598;2023-04-02T12:23:21;2.15;;;0.98;;
51883;SDS011;37915;53.254;6.598;2023-04-02T12:26:00;2.28;;;0.93;;
51883;SDS011;37915;53.254;6.598;2023-04-02T12:28:28;2.22;;;0.90;;
51883;SDS011;37915;53.254;6.598;2023-04-02T12:31:31;1.95;;;0.90;;
51883;SDS011;37915;53.254;6.598;2023-04-02T12:33:51;3.45;;;1.38;;
51883;SDS011;37915;53.254;6.598;2023-04-02T12:36:18;3.92;;;1.45;;
51883;SDS011;37915;53.254;6.598;2023-04-02T12:41:20;4.43;;;1.45;;
51883;SDS011;37915;53.254;6.598;2023-04-02T12:43:55;3.78;;;2.28;;
51883;SDS011;37915;53.254;6.598;2023-04-02T12:46:22;4.35;;;1.40;;
51883;SDS011;37915;53.254;6.598;2023-04-02T12:48:50;3.53;;;1.08;;
51883;SDS011;37915;53.254;6.598;2023-04-02T12:51:18;2.88;;;1.13;;
51883;SDS011;37915;53.254;6.598;2023-04-02T12:53:47;3.20;;;1.10;;
51883;SDS011;37915;53.254;6.598;2023-04-02T12:56:18;2.92;;;0.95;;
51883;SDS011;37915;53.254;6.598;2023-04-02T12:58:51;6.43;;;1.20;;
51883;SDS011;37915;53.254;6.598;2023-04-02T13:01:19;3.80;;;1.40;;
51883;SDS011;37915;53.254;6.598;2023-04-02T13:04:04;2.45;;;0.88;;
51883;SDS011;37915;53.254;6.598;2023-04-02T13:06:35;3.17;;;0.90;;
51883;SDS011;37915;53.254;6.598;2023-04-02T13:09:03;3.78;;;1.02;;
51883;SDS011;37915;53.254;6.598;2023-04-02T13:11:34;2.33;;;1.02;;
51883;SDS011;37915;53.254;6.598;2023-04-02T13:14:02;1.80;;;1.00;;
51883;SDS011;37915;53.254;6.598;2023-04-02T13:16:36;1.80;;;0.90;;
51883;SDS011;37915;53.254;6.598;2023-04-02T13:19:24;3.00;;;1.00;;
51883;SDS011;37915;53.254;6.598;2023-04-02T13:21:58;2.80;;;1.10;;
51883;SDS011;37915;53.254;6.598;2023-04-02T13:24:26;3.03;;;1.05;;
51883;SDS011;37915;53.254;6.598;2023-04-02T13:26:57;3.40;;;1.08;;
51883;SDS011;37915;53.254;6.598;2023-04-02T13:29:32;2.33;;;1.08;;
51883;SDS011;37915;53.254;6.598;2023-04-02T13:32:01;3.65;;;1.30;;
51883;SDS011;37915;53.254;6.598;2023-04-02T13:34:29;3.70;;;1.23;;
51883;SDS011;37915;53.254;6.598;2023-04-02T13:36:55;3.25;;;1.02;;
51883;SDS011;37915;53.254;6.598;2023-04-02T13:39:22;3.75;;;1.10;;
51883;SDS011;37915;53.254;6.598;2023-04-02T13:41:50;2.60;;;1.05;;
51883;SDS011;37915;53.254;6.598;2023-04-02T13:44:20;5.15;;;1.33;;
51883;SDS011;37915;53.254;6.598;2023-04-02T13:46:51;2.75;;;1.15;;
51883;SDS011;37915;53.254;6.598;2023-04-02T13:49:18;2.65;;;1.00;;
51883;SDS011;37915;53.254;6.598;2023-04-02T13:51:46;3.28;;;1.10;;
51883;SDS011;37915;53.254;6.598;2023-04-02T13:54:29;2.83;;;1.02;;
51883;SDS011;37915;53.254;6.598;2023-04-02T13:57:10;3.63;;;0.90;;
51883;SDS011;37915;53.254;6.598;2023-04-02T13:59:36;3.13;;;1.20;;
51883;SDS011;37915;53.254;6.598;2023-04-02T14:02:07;2.38;;;0.90;;
51883;SDS011;37915;53.254;6.598;2023-04-02T14:04:38;2.28;;;1.00;;
51883;SDS011;37915;53.254;6.598;2023-04-02T14:10:49;1.75;;;0.90;;
51883;SDS011;37915;53.254;6.598;2023-04-02T14:13:07;1.75;;;0.80;;
51883;SDS011;37915;53.254;6.598;2023-04-02T14:31:59;1.90;;;0.95;;
51883;SDS011;37915;53.254;6.598;2023-04-02T14:43:01;1.98;;;0.88;;
51883;SDS011;37915;53.254;6.598;2023-04-02T14:45:56;5.95;;;1.30;;
51883;SDS011;37915;53.254;6.598;2023-04-02T14:51:50;3.47;;;1.10;;
51883;SDS011;37915;53.254;6.598;2023-04-02T14:56:51;4.30;;;1.23;;
51883;SDS011;37915;53.254;6.598;2023-04-02T14:59:26;3.00;;;1.27;;
51883;SDS011;37915;53.254;6.598;2023-04-02T15:02:00;3.85;;;0.95;;
51883;SDS011;37915;53.254;6.598;2023-04-02T15:04:40;3.70;;;1.00;;
51883;SDS011;37915;53.254;6.598;2023-04-02T15:07:16;1.95;;;0.90;;
51883;SDS011;37915;53.254;6.598;2023-04-02T15:09:53;3.63;;;1.23;;
51883;SDS011;37915;53.254;6.598;2023-04-02T15:12:35;3.75;;;1.00;;
51883;SDS011;37915;53.254;6.598;2023-04-02T15:15:18;2.70;;;1.02;;
51883;SDS011;37915;53.254;6.598;2023-04-02T15:17:51;1.77;;;0.80;;
51883;SDS011;37915;53.254;6.598;2023-04-02T15:20:18;4.47;;;1.23;;
51883;SDS011;37915;53.254;6.598;2023-04-02T15:22:55;2.17;;;0.90;;
51883;SDS011;37915;53.254;6.598;2023-04-02T15:25:32;2.95;;;1.00;;
51883;SDS011;37915;53.254;6.598;2023-04-02T15:30:44;2.20;;;1.00;;
51883;SDS011;37915;53.254;6.598;2023-04-02T15:39:10;1.92;;;0.80;;
51883;SDS011;37915;53.254;6.598;2023-04-02T15:44:36;2.35;;;1.30;;
51883;SDS011;37915;53.254;6.598;2023-04-02T15:47:14;3.88;;;1.15;;
51883;SDS011;37915;53.254;6.598;2023-04-02T15:49:52;2.63;;;0.95;;
51883;SDS011;37915;53.254;6.598;2023-04-02T16:01:00;3.55;;;1.10;;
51883;SDS011;37915;53.254;6.598;2023-04-02T16:06:18;3.70;;;1.05;;
51883;SDS011;37915;53.254;6.598;2023-04-02T16:12:12;1.83;;;1.08;;
51883;SDS011;37915;53.254;6.598;2023-04-02T16:14:41;2.10;;;1.10;;
51883;SDS011;37915;53.254;6.598;2023-04-02T16:17:23;3.38;;;1.00;;
51883;SDS011;37915;53.254;6.598;2023-04-02T16:19:56;2.50;;;0.80;;
51883;SDS011;37915;53.254;6.598;2023-04-02T16:22:34;3.50;;;1.00;;
51883;SDS011;37915;53.254;6.598;2023-04-02T16:25:18;3.92;;;1.20;;
51883;SDS011;37915;53.254;6.598;2023-04-02T16:31:01;3.33;;;1.13;;
51883;SDS011;37915;53.254;6.598;2023-04-02T16:33:52;3.88;;;1.10;;
51883;SDS011;37915;53.254;6.598;2023-04-02T16:39:14;3.15;;;0.93;;
51883;SDS011;37915;53.254;6.598;2023-04-02T17:06:05;1.88;;;1.00;;
51883;SDS011;37915;53.254;6.598;2023-04-02T17:08:41;3.40;;;1.10;;
51883;SDS011;37915;53.254;6.598;2023-04-02T17:11:13;2.40;;;1.00;;
51883;SDS011;37915;53.254;6.598;2023-04-02T17:13:50;2.88;;;1.20;;
51883;SDS011;37915;53.254;6.598;2023-04-02T17:16:44;2.60;;;1.30;;
51883;SDS011;37915;53.254;6.598;2023-04-02T17:19:13;3.40;;;1.42;;
51883;SDS011;37915;53.254;6.598;2023-04-02T17:21:41;3.42;;;1.35;;
51883;SDS011;37915;53.254;6.598;2023-04-02T17:26:58;3.17;;;1.13;;
51883;SDS011;37915;53.254;6.598;2023-04-02T17:29:34;2.53;;;1.17;;
51883;SDS011;37915;53.254;6.598;2023-04-02T17:34:30;2.90;;;1.17;;
51883;SDS011;37915;53.254;6.598;2023-04-02T17:47:38;3.95;;;1.40;;
51883;SDS011;37915;53.254;6.598;2023-04-02T17:53:15;6.57;;;1.35;;
51883;SDS011;37915;53.254;6.598;2023-04-02T18:17:37;2.65;;;1.27;;
51883;SDS011;37915;53.254;6.598;2023-04-02T18:20:21;2.92;;;1.20;;
51883;SDS011;37915;53.254;6.598;2023-04-02T18:22:51;3.58;;;1.35;;
51883;SDS011;37915;53.254;6.598;2023-04-02T18:38:58;3.28;;;1.40;;
51883;SDS011;37915;53.254;6.598;2023-04-02T18:41:53;2.92;;;1.15;;
51883;SDS011;37915;53.254;6.598;2023-04-02T18:44:44;3.35;;;1.30;;
51883;SDS011;37915;53.254;6.598;2023-04-02T18:52:47;5.10;;;1.58;;
51883;SDS011;37915;53.254;6.598;2023-04-02T18:55:16;3.28;;;1.30;;
51883;SDS011;37915;53.254;6.598;2023-04-02T18:57:45;2.22;;;1.10;;
51883;SDS011;37915;53.254;6.598;2023-04-02T19:02:46;4.22;;;1.20;;
51883;SDS011;37915;53.254;6.598;2023-04-02T19:07:47;5.32;;;1.50;;
51883;SDS011;37915;53.254;6.598;2023-04-02T19:10:22;4.50;;;1.38;;
51883;SDS011;37915;53.254;6.598;2023-04-02T19:12:55;5.43;;;1.50;;
51883;SDS011;37915;53.254;6.598;2023-04-02T19:15:21;3.38;;;1.30;;
51883;SDS011;37915;53.254;6.598;2023-04-02T19:21:03;3.58;;;1.70;;
51883;SDS011;37915;53.254;6.598;2023-04-02T19:24:13;2.22;;;1.20;;
51883;SDS011;37915;53.254;6.598;2023-04-02T19:32:31;3.22;;;1.60;;
51883;SDS011;37915;53.254;6.598;2023-04-02T19:35:13;9.20;;;1.83;;
51883;SDS011;37915;53.254;6.598;2023-04-02T19:37:43;3.50;;;1.65;;
51883;SDS011;37915;53.254;6.598;2023-04-02T19:43:05;2.05;;;1.20;;
51883;SDS011;37915;53.254;6.598;2023-04-02T19:45:37;4.25;;;1.40;;
51883;SDS011;37915;53.254;6.598;2023-04-02T19:48:09;12.75;;;1.77;;
51883;SDS011;37915;53.254;6.598;2023-04-02T19:50:35;6.03;;;1.75;;
51883;SDS011;37915;53.254;6.598;2023-04-02T19:53:01;3.70;;;1.85;;
51883;SDS011;37915;53.254;6.598;2023-04-02T19:55:27;4.18;;;1.30;;
51883;SDS011;37915;53.254;6.598;2023-04-02T19:57:53;2.72;;;1.40;;
51883;SDS011;37915;53.254;6.598;2023-04-02T20:00:18;2.90;;;1.55;;
51883;SDS011;37915;53.254;6.598;2023-04-02T20:02:45;3.60;;;1.45;;
51883;SDS011;37915;53.254;6.598;2023-04-02T20:05:10;4.47;;;1.73;;
51883;SDS011;37915;53.254;6.598;2023-04-02T20:07:37;2.45;;;1.33;;
51883;SDS011;37915;53.254;6.598;2023-04-02T20:10:03;4.60;;;1.65;;
51883;SDS011;37915;53.254;6.598;2023-04-02T20:12:30;4.00;;;1.52;;
51883;SDS011;37915;53.254;6.598;2023-04-02T20:14:55;4.22;;;1.60;;
51883;SDS011;37915;53.254;6.598;2023-04-02T20:17:21;5.35;;;2.10;;
51883;SDS011;37915;53.254;6.598;2023-04-02T20:19:47;3.58;;;1.70;;
51883;SDS011;37915;53.254;6.598;2023-04-02T20:22:12;3.10;;;1.40;;
51883;SDS011;37915;53.254;6.598;2023-04-02T20:24:38;3.70;;;1.23;;
51883;SDS011;37915;53.254;6.598;2023-04-02T20:27:05;3.25;;;1.48;;
51883;SDS011;37915;53.254;6.598;2023-04-02T20:29:30;5.05;;;1.63;;
51883;SDS011;37915;53.254;6.598;2023-04-02T20:31:56;3.15;;;1.40;;
51883;SDS011;37915;53.254;6.598;2023-04-02T20:34:22;3.83;;;1.48;;
51883;SDS011;37915;53.254;6.598;2023-04-02T20:36:48;5.03;;;1.42;;
51883;SDS011;37915;53.254;6.598;2023-04-02T20:39:13;3.60;;;1.60;;